Harkers Island, NC

12:43 AM EDT on August 22, 2014 (GMT -0400)
Cherry Point Marine Corps Air Station | Change Station
CLOSE
Current Station
Airport
Location: Cherry Point,
Elevation: 26 ft
Nearby Weather Stations

Elev 26 ft 34.90 °N, 76.88 °W | Updated 49 minutes ago

Clear
Clear
77 °F
Feels Like 77 °F
N
4
Wind Variable Wind from South

Today
High -- | Low -- °F
--% Chance of Precip.
Yesterday
High -- | Low -- °F
Precip. -- in
6:31 AM 7:45 PM
Waning Crescent, 10% visible
Pressure 30.02 in
Visibility 8.0 miles
Clouds Clear
Dew Point 74 °F
Humidity 90%
Rainfall 0.00 in
Snow Depth Not available.
UV 0 out of 12
Pollen 8.20 out of 12
Air Quality Not available.
Flu Activity Not available.
METAR KNKT 220354Z 19003KT 8SM CLR 25/23 A3003 RMK AO2 SLP164 T02500233

More Conditions Fewer Conditions

Pressure 30.02 in
Visibility 8.0 miles
Clouds Clear
Dew Point 74 °F
Humidity 90%
Rainfall 0.00 in
Snow Depth Not available.
UV 0 out of 12
Pollen 8.20 out of 12
Air Quality Not available.
Flu Activity Not available.
METAR KNKT 220354Z 19003KT 8SM CLR 25/23 A3003 RMK AO2 SLP164 T02500233

More Conditions Fewer Conditions

10-Day Weather Forecast

Almanac

Astronomy

Aug. 22, 2014 Rise Set
Actual Time 6:31 AM EDT 7:45 PM EDT
Civil Twilight 6:05 AM EDT 8:12 PM EDT
Nautical Twilight 5:34 AM EDT 8:43 PM EDT
Astronomical Twilight 5:01 AM EDT 9:15 PM EDT
Moon 3:55 AM EDT 5:50 PM EDT
Length of Visible Light 14h 06m
Length of Day
13h 13m
Tomorrow will be 2m 0s shorter.
Waning Crescent, 10% of the Moon is Illuminated
Today
Waning Crescent
Aug 25
New
Sep 2
First Quarter
Sep 8
Full
Sep 15
Last Quarter

Today's Extremes

State Highs State Lows

Community

WunderPhotos

Upload Photos

1,746,130 photos uploaded!

Nearby

Snow Depth

Station Depth Elevation
No new snow has been reported.

Earthquake Activity

City Distance Mag. Time & Date
No recent earthquake activity has been reported nearby.
Minimum magnitude displayed is 2.5.

Coastal Water Temperatures

Place Temperature
Beaufort, NC 82.9 °F
Johnny Mercer Pier, Wrightsville Beach, NC 82.9 °F
Hatteras, NC 82.9 °F
Oregon Inlet Marina, NC 82.9 °F

Nearby Weather Stations